sensor_id;sensor_type;location;lat;lon;timestamp;P1;durP1;ratioP1;P2;durP2;ratioP2
14472;SDS011;7322;50.872;4.386;2022-12-28T00:01:11;2.23;;;1.77;;
14472;SDS011;7322;50.872;4.386;2022-12-28T00:03:41;2.13;;;1.70;;
14472;SDS011;7322;50.872;4.386;2022-12-28T00:06:08;2.97;;;1.83;;
14472;SDS011;7322;50.872;4.386;2022-12-28T00:08:36;3.80;;;2.07;;
14472;SDS011;7322;50.872;4.386;2022-12-28T00:11:06;4.00;;;1.77;;
14472;SDS011;7322;50.872;4.386;2022-12-28T00:13:38;2.77;;;1.97;;
14472;SDS011;7322;50.872;4.386;2022-12-28T00:16:08;3.30;;;2.07;;
14472;SDS011;7322;50.872;4.386;2022-12-28T00:18:36;2.30;;;1.63;;
14472;SDS011;7322;50.872;4.386;2022-12-28T00:21:11;2.70;;;1.83;;
14472;SDS011;7322;50.872;4.386;2022-12-28T00:23:39;3.47;;;2.10;;
14472;SDS011;7322;50.872;4.386;2022-12-28T00:26:06;2.13;;;1.83;;
14472;SDS011;7322;50.872;4.386;2022-12-28T00:28:35;3.20;;;1.80;;
14472;SDS011;7322;50.872;4.386;2022-12-28T00:31:05;3.27;;;1.93;;
14472;SDS011;7322;50.872;4.386;2022-12-28T00:33:32;3.97;;;1.93;;
14472;SDS011;7322;50.872;4.386;2022-12-28T00:36:02;1.80;;;1.40;;
14472;SDS011;7322;50.872;4.386;2022-12-28T00:38:30;2.40;;;1.53;;
14472;SDS011;7322;50.872;4.386;2022-12-28T00:40:57;2.67;;;1.60;;
14472;SDS011;7322;50.872;4.386;2022-12-28T00:43:26;2.07;;;1.63;;
14472;SDS011;7322;50.872;4.386;2022-12-28T00:45:53;2.23;;;1.70;;
14472;SDS011;7322;50.872;4.386;2022-12-28T00:48:23;2.57;;;1.60;;
14472;SDS011;7322;50.872;4.386;2022-12-28T00:50:50;3.57;;;1.90;;
14472;SDS011;7322;50.872;4.386;2022-12-28T00:53:18;2.97;;;1.90;;
14472;SDS011;7322;50.872;4.386;2022-12-28T00:55:46;1.93;;;1.60;;
14472;SDS011;7322;50.872;4.386;2022-12-28T00:58:17;2.57;;;1.70;;
14472;SDS011;7322;50.872;4.386;2022-12-28T01:00:44;2.27;;;1.80;;
14472;SDS011;7322;50.872;4.386;2022-12-28T01:03:11;2.10;;;1.90;;
14472;SDS011;7322;50.872;4.386;2022-12-28T01:05:39;2.60;;;1.60;;
14472;SDS011;7322;50.872;4.386;2022-12-28T01:08:06;2.70;;;1.70;;
14472;SDS011;7322;50.872;4.386;2022-12-28T01:10:33;3.10;;;1.67;;
14472;SDS011;7322;50.872;4.386;2022-12-28T01:13:00;2.80;;;1.50;;
14472;SDS011;7322;50.872;4.386;2022-12-28T01:15:27;2.17;;;1.80;;
14472;SDS011;7322;50.872;4.386;2022-12-28T01:17:54;2.43;;;1.63;;
14472;SDS011;7322;50.872;4.386;2022-12-28T01:22:59;2.67;;;1.70;;
14472;SDS011;7322;50.872;4.386;2022-12-28T01:25:26;3.43;;;2.00;;
14472;SDS011;7322;50.872;4.386;2022-12-28T01:27:53;2.93;;;1.60;;
14472;SDS011;7322;50.872;4.386;2022-12-28T01:30:21;2.37;;;1.80;;
14472;SDS011;7322;50.872;4.386;2022-12-28T01:32:48;3.00;;;1.73;;
14472;SDS011;7322;50.872;4.386;2022-12-28T01:35:15;3.27;;;1.87;;
14472;SDS011;7322;50.872;4.386;2022-12-28T01:37:43;2.90;;;1.90;;
14472;SDS011;7322;50.872;4.386;2022-12-28T01:40:13;2.73;;;1.70;;
14472;SDS011;7322;50.872;4.386;2022-12-28T01:42:41;2.77;;;1.80;;
14472;SDS011;7322;50.872;4.386;2022-12-28T01:45:15;3.37;;;1.87;;
14472;SDS011;7322;50.872;4.386;2022-12-28T01:47:43;2.27;;;1.80;;
14472;SDS011;7322;50.872;4.386;2022-12-28T01:50:12;1.93;;;1.60;;
14472;SDS011;7322;50.872;4.386;2022-12-28T01:52:42;2.70;;;1.73;;
14472;SDS011;7322;50.872;4.386;2022-12-28T01:55:15;3.57;;;1.90;;
14472;SDS011;7322;50.872;4.386;2022-12-28T01:57:47;2.60;;;1.70;;
14472;SDS011;7322;50.872;4.386;2022-12-28T02:00:18;1.60;;;1.47;;
14472;SDS011;7322;50.872;4.386;2022-12-28T02:02:49;3.13;;;2.10;;
14472;SDS011;7322;50.872;4.386;2022-12-28T02:05:21;2.60;;;1.70;;
14472;SDS011;7322;50.872;4.386;2022-12-28T02:07:51;2.47;;;1.57;;
14472;SDS011;7322;50.872;4.386;2022-12-28T02:10:23;2.90;;;2.07;;
14472;SDS011;7322;50.872;4.386;2022-12-28T02:12:51;1.97;;;1.30;;
14472;SDS011;7322;50.872;4.386;2022-12-28T02:15:23;3.07;;;1.57;;
14472;SDS011;7322;50.872;4.386;2022-12-28T02:17:53;2.27;;;1.90;;
14472;SDS011;7322;50.872;4.386;2022-12-28T02:20:21;2.17;;;1.67;;
14472;SDS011;7322;50.872;4.386;2022-12-28T02:23:09;2.23;;;1.30;;
14472;SDS011;7322;50.872;4.386;2022-12-28T02:28:50;2.10;;;1.77;;
14472;SDS011;7322;50.872;4.386;2022-12-28T02:31:40;1.70;;;1.50;;
14472;SDS011;7322;50.872;4.386;2022-12-28T02:34:13;2.27;;;1.70;;
14472;SDS011;7322;50.872;4.386;2022-12-28T02:36:46;2.23;;;1.73;;
14472;SDS011;7322;50.872;4.386;2022-12-28T02:39:20;2.73;;;1.70;;
14472;SDS011;7322;50.872;4.386;2022-12-28T02:41:52;2.73;;;1.63;;
14472;SDS011;7322;50.872;4.386;2022-12-28T02:50:00;1.80;;;1.27;;
14472;SDS011;7322;50.872;4.386;2022-12-28T02:52:40;2.27;;;1.30;;
14472;SDS011;7322;50.872;4.386;2022-12-28T02:55:24;1.73;;;1.30;;
14472;SDS011;7322;50.872;4.386;2022-12-28T02:58:27;2.30;;;1.67;;
14472;SDS011;7322;50.872;4.386;2022-12-28T03:01:12;2.27;;;1.60;;
14472;SDS011;7322;50.872;4.386;2022-12-28T03:03:51;2.30;;;1.30;;
14472;SDS011;7322;50.872;4.386;2022-12-28T03:06:34;3.03;;;1.60;;
14472;SDS011;7322;50.872;4.386;2022-12-28T03:09:25;2.50;;;1.73;;
14472;SDS011;7322;50.872;4.386;2022-12-28T03:11:57;2.17;;;1.47;;
14472;SDS011;7322;50.872;4.386;2022-12-28T03:14:33;3.30;;;1.63;;
14472;SDS011;7322;50.872;4.386;2022-12-28T03:17:07;2.77;;;1.70;;
14472;SDS011;7322;50.872;4.386;2022-12-28T03:19:53;2.07;;;1.40;;
14472;SDS011;7322;50.872;4.386;2022-12-28T03:22:42;1.87;;;1.30;;
14472;SDS011;7322;50.872;4.386;2022-12-28T03:28:19;1.90;;;1.50;;
14472;SDS011;7322;50.872;4.386;2022-12-28T03:31:07;2.07;;;1.40;;
14472;SDS011;7322;50.872;4.386;2022-12-28T03:33:40;2.23;;;1.43;;
14472;SDS011;7322;50.872;4.386;2022-12-28T03:36:15;2.03;;;1.40;;
14472;SDS011;7322;50.872;4.386;2022-12-28T03:38:47;1.60;;;1.40;;
14472;SDS011;7322;50.872;4.386;2022-12-28T03:41:27;1.83;;;1.57;;
14472;SDS011;7322;50.872;4.386;2022-12-28T03:43:57;2.80;;;1.37;;
14472;SDS011;7322;50.872;4.386;2022-12-28T03:49:12;1.83;;;1.23;;
14472;SDS011;7322;50.872;4.386;2022-12-28T03:51:40;2.10;;;1.50;;
14472;SDS011;7322;50.872;4.386;2022-12-28T03:54:11;2.67;;;1.53;;
14472;SDS011;7322;50.872;4.386;2022-12-28T03:56:44;1.87;;;1.30;;
14472;SDS011;7322;50.872;4.386;2022-12-28T03:59:14;1.60;;;1.20;;
14472;SDS011;7322;50.872;4.386;2022-12-28T04:01:47;1.80;;;1.17;;
14472;SDS011;7322;50.872;4.386;2022-12-28T04:04:17;1.70;;;1.40;;
14472;SDS011;7322;50.872;4.386;2022-12-28T04:06:46;2.27;;;1.63;;
14472;SDS011;7322;50.872;4.386;2022-12-28T04:09:21;1.33;;;1.23;;
14472;SDS011;7322;50.872;4.386;2022-12-28T04:11:49;2.50;;;1.30;;
14472;SDS011;7322;50.872;4.386;2022-12-28T04:14:16;1.50;;;1.17;;
14472;SDS011;7322;50.872;4.386;2022-12-28T04:16:43;2.30;;;1.60;;
14472;SDS011;7322;50.872;4.386;2022-12-28T04:19:10;2.30;;;1.33;;
14472;SDS011;7322;50.872;4.386;2022-12-28T04:21:39;2.03;;;1.60;;
14472;SDS011;7322;50.872;4.386;2022-12-28T04:24:06;2.83;;;1.50;;
14472;SDS011;7322;50.872;4.386;2022-12-28T04:26:36;2.00;;;1.20;;
14472;SDS011;7322;50.872;4.386;2022-12-28T04:29:04;1.70;;;1.20;;
14472;SDS011;7322;50.872;4.386;2022-12-28T04:31:33;1.67;;;1.40;;
14472;SDS011;7322;50.872;4.386;2022-12-28T04:34:07;1.77;;;1.20;;
14472;SDS011;7322;50.872;4.386;2022-12-28T04:36:35;2.30;;;1.27;;
14472;SDS011;7322;50.872;4.386;2022-12-28T04:39:04;1.77;;;1.10;;
14472;SDS011;7322;50.872;4.386;2022-12-28T04:41:31;2.90;;;1.50;;
14472;SDS011;7322;50.872;4.386;2022-12-28T04:44:00;2.17;;;1.27;;
14472;SDS011;7322;50.872;4.386;2022-12-28T04:46:27;2.63;;;1.40;;
14472;SDS011;7322;50.872;4.386;2022-12-28T04:49:00;1.83;;;1.13;;
14472;SDS011;7322;50.872;4.386;2022-12-28T04:51:29;2.60;;;1.33;;
14472;SDS011;7322;50.872;4.386;2022-12-28T04:53:58;2.30;;;1.40;;
14472;SDS011;7322;50.872;4.386;2022-12-28T04:56:27;1.57;;;1.20;;
14472;SDS011;7322;50.872;4.386;2022-12-28T04:58:55;1.30;;;1.20;;
14472;SDS011;7322;50.872;4.386;2022-12-28T05:01:23;2.17;;;1.20;;
14472;SDS011;7322;50.872;4.386;2022-12-28T05:03:51;2.00;;;1.20;;
14472;SDS011;7322;50.872;4.386;2022-12-28T05:06:20;2.83;;;1.20;;
14472;SDS011;7322;50.872;4.386;2022-12-28T05:08:49;1.90;;;1.20;;
14472;SDS011;7322;50.872;4.386;2022-12-28T05:11:20;2.03;;;1.30;;
14472;SDS011;7322;50.872;4.386;2022-12-28T05:13:50;1.67;;;1.10;;
14472;SDS011;7322;50.872;4.386;2022-12-28T05:16:17;2.00;;;1.20;;
14472;SDS011;7322;50.872;4.386;2022-12-28T05:18:45;2.13;;;1.40;;
14472;SDS011;7322;50.872;4.386;2022-12-28T05:21:14;3.00;;;1.27;;
14472;SDS011;7322;50.872;4.386;2022-12-28T05:23:44;2.07;;;1.27;;
14472;SDS011;7322;50.872;4.386;2022-12-28T05:26:12;1.70;;;1.20;;
14472;SDS011;7322;50.872;4.386;2022-12-28T05:28:43;0.90;;;0.87;;
14472;SDS011;7322;50.872;4.386;2022-12-28T05:31:14;1.40;;;1.10;;
14472;SDS011;7322;50.872;4.386;2022-12-28T05:33:43;1.57;;;1.10;;
14472;SDS011;7322;50.872;4.386;2022-12-28T05:36:12;2.33;;;1.03;;
14472;SDS011;7322;50.872;4.386;2022-12-28T05:38:41;1.00;;;0.90;;
14472;SDS011;7322;50.872;4.386;2022-12-28T05:41:10;2.60;;;1.30;;
14472;SDS011;7322;50.872;4.386;2022-12-28T05:43:41;2.13;;;1.13;;
14472;SDS011;7322;50.872;4.386;2022-12-28T05:46:11;2.20;;;1.20;;
14472;SDS011;7322;50.872;4.386;2022-12-28T05:48:40;1.73;;;1.10;;
14472;SDS011;7322;50.872;4.386;2022-12-28T05:51:09;1.47;;;1.07;;
14472;SDS011;7322;50.872;4.386;2022-12-28T05:53:39;2.37;;;1.30;;
14472;SDS011;7322;50.872;4.386;2022-12-28T05:56:09;1.40;;;0.87;;
14472;SDS011;7322;50.872;4.386;2022-12-28T05:58:40;1.00;;;1.00;;
14472;SDS011;7322;50.872;4.386;2022-12-28T06:01:11;1.27;;;1.00;;
14472;SDS011;7322;50.872;4.386;2022-12-28T06:03:41;1.13;;;0.90;;
14472;SDS011;7322;50.872;4.386;2022-12-28T06:06:09;2.07;;;1.00;;
14472;SDS011;7322;50.872;4.386;2022-12-28T06:08:37;1.77;;;1.10;;
14472;SDS011;7322;50.872;4.386;2022-12-28T06:11:05;1.20;;;1.00;;
14472;SDS011;7322;50.872;4.386;2022-12-28T06:13:33;1.10;;;0.90;;
14472;SDS011;7322;50.872;4.386;2022-12-28T06:16:03;1.83;;;1.10;;
14472;SDS011;7322;50.872;4.386;2022-12-28T06:18:33;1.63;;;0.90;;
14472;SDS011;7322;50.872;4.386;2022-12-28T06:21:03;1.50;;;0.90;;
14472;SDS011;7322;50.872;4.386;2022-12-28T06:23:33;1.80;;;0.97;;
14472;SDS011;7322;50.872;4.386;2022-12-28T06:26:03;1.27;;;0.90;;
14472;SDS011;7322;50.872;4.386;2022-12-28T06:28:35;0.97;;;0.80;;
14472;SDS011;7322;50.872;4.386;2022-12-28T06:31:02;1.17;;;1.00;;
14472;SDS011;7322;50.872;4.386;2022-12-28T06:33:32;1.17;;;0.87;;
14472;SDS011;7322;50.872;4.386;2022-12-28T06:36:02;0.80;;;0.80;;
14472;SDS011;7322;50.872;4.386;2022-12-28T06:38:31;1.37;;;0.90;;
14472;SDS011;7322;50.872;4.386;2022-12-28T06:41:01;0.73;;;0.70;;
14472;SDS011;7322;50.872;4.386;2022-12-28T06:45:59;1.37;;;0.80;;
14472;SDS011;7322;50.872;4.386;2022-12-28T06:48:26;0.90;;;0.70;;
14472;SDS011;7322;50.872;4.386;2022-12-28T06:50:55;1.20;;;0.90;;
14472;SDS011;7322;50.872;4.386;2022-12-28T06:53:24;1.30;;;0.90;;
14472;SDS011;7322;50.872;4.386;2022-12-28T06:55:56;1.40;;;0.80;;
14472;SDS011;7322;50.872;4.386;2022-12-28T06:58:27;1.67;;;0.90;;
14472;SDS011;7322;50.872;4.386;2022-12-28T07:00:57;0.83;;;0.80;;
14472;SDS011;7322;50.872;4.386;2022-12-28T07:03:31;1.37;;;0.80;;
14472;SDS011;7322;50.872;4.386;2022-12-28T07:06:04;1.30;;;0.90;;
14472;SDS011;7322;50.872;4.386;2022-12-28T07:08:32;0.80;;;0.70;;
14472;SDS011;7322;50.872;4.386;2022-12-28T07:11:04;0.80;;;0.80;;
14472;SDS011;7322;50.872;4.386;2022-12-28T07:13:32;1.00;;;0.90;;
14472;SDS011;7322;50.872;4.386;2022-12-28T07:16:01;1.50;;;0.80;;
14472;SDS011;7322;50.872;4.386;2022-12-28T07:18:30;1.70;;;0.90;;
14472;SDS011;7322;50.872;4.386;2022-12-28T07:20:59;2.07;;;0.83;;
14472;SDS011;7322;50.872;4.386;2022-12-28T07:23:32;0.90;;;0.70;;
14472;SDS011;7322;50.872;4.386;2022-12-28T07:26:03;0.90;;;0.70;;
14472;SDS011;7322;50.872;4.386;2022-12-28T07:28:31;1.50;;;0.83;;
14472;SDS011;7322;50.872;4.386;2022-12-28T07:31:01;1.63;;;0.80;;
14472;SDS011;7322;50.872;4.386;2022-12-28T07:33:31;1.27;;;0.67;;
14472;SDS011;7322;50.872;4.386;2022-12-28T07:35:58;0.77;;;0.77;;
14472;SDS011;7322;50.872;4.386;2022-12-28T07:38:25;1.60;;;0.70;;
14472;SDS011;7322;50.872;4.386;2022-12-28T07:41:00;1.27;;;0.90;;
14472;SDS011;7322;50.872;4.386;2022-12-28T07:43:30;1.00;;;0.90;;
14472;SDS011;7322;50.872;4.386;2022-12-28T07:46:05;1.10;;;0.80;;
14472;SDS011;7322;50.872;4.386;2022-12-28T07:48:35;1.20;;;0.80;;
14472;SDS011;7322;50.872;4.386;2022-12-28T07:51:14;1.37;;;0.90;;
14472;SDS011;7322;50.872;4.386;2022-12-28T07:53:44;1.60;;;0.90;;
14472;SDS011;7322;50.872;4.386;2022-12-28T07:56:14;1.07;;;0.70;;
14472;SDS011;7322;50.872;4.386;2022-12-28T08:01:37;1.03;;;0.80;;
14472;SDS011;7322;50.872;4.386;2022-12-28T08:06:42;1.50;;;0.80;;
14472;SDS011;7322;50.872;4.386;2022-12-28T08:09:12;1.30;;;0.90;;
14472;SDS011;7322;50.872;4.386;2022-12-28T08:11:47;1.40;;;1.00;;
14472;SDS011;7322;50.872;4.386;2022-12-28T08:14:14;1.80;;;0.80;;
14472;SDS011;7322;50.872;4.386;2022-12-28T08:16:41;1.63;;;0.70;;
14472;SDS011;7322;50.872;4.386;2022-12-28T08:19:09;2.10;;;0.83;;
14472;SDS011;7322;50.872;4.386;2022-12-28T08:21:37;1.30;;;0.87;;
14472;SDS011;7322;50.872;4.386;2022-12-28T08:24:07;1.90;;;0.90;;
14472;SDS011;7322;50.872;4.386;2022-12-28T08:26:35;1.40;;;0.80;;
14472;SDS011;7322;50.872;4.386;2022-12-28T08:29:07;1.70;;;1.00;;
14472;SDS011;7322;50.872;4.386;2022-12-28T08:31:39;2.33;;;1.10;;
14472;SDS011;7322;50.872;4.386;2022-12-28T08:34:09;1.70;;;0.83;;
14472;SDS011;7322;50.872;4.386;2022-12-28T08:36:38;1.80;;;1.20;;
14472;SDS011;7322;50.872;4.386;2022-12-28T08:39:05;1.90;;;1.20;;
14472;SDS011;7322;50.872;4.386;2022-12-28T08:41:33;1.77;;;1.07;;
14472;SDS011;7322;50.872;4.386;2022-12-28T08:44:00;2.00;;;1.20;;
14472;SDS011;7322;50.872;4.386;2022-12-28T08:46:37;1.77;;;1.00;;
14472;SDS011;7322;50.872;4.386;2022-12-28T08:49:05;1.10;;;0.80;;
14472;SDS011;7322;50.872;4.386;2022-12-28T08:51:34;2.00;;;1.20;;
14472;SDS011;7322;50.872;4.386;2022-12-28T08:54:04;1.17;;;0.90;;
14472;SDS011;7322;50.872;4.386;2022-12-28T08:59:16;2.10;;;1.00;;
14472;SDS011;7322;50.872;4.386;2022-12-28T09:01:45;3.23;;;1.30;;
14472;SDS011;7322;50.872;4.386;2022-12-28T09:04:18;1.87;;;0.90;;
14472;SDS011;7322;50.872;4.386;2022-12-28T09:06:48;1.20;;;1.00;;
14472;SDS011;7322;50.872;4.386;2022-12-28T09:09:16;1.70;;;1.00;;
14472;SDS011;7322;50.872;4.386;2022-12-28T09:11:46;0.93;;;0.80;;
14472;SDS011;7322;50.872;4.386;2022-12-28T09:14:14;1.40;;;0.70;;
14472;SDS011;7322;50.872;4.386;2022-12-28T09:16:42;1.20;;;0.80;;
14472;SDS011;7322;50.872;4.386;2022-12-28T09:19:12;1.17;;;0.90;;
14472;SDS011;7322;50.872;4.386;2022-12-28T09:21:44;0.90;;;0.80;;
14472;SDS011;7322;50.872;4.386;2022-12-28T09:24:14;1.47;;;0.77;;
14472;SDS011;7322;50.872;4.386;2022-12-28T09:26:41;0.80;;;0.80;;
14472;SDS011;7322;50.872;4.386;2022-12-28T09:29:13;2.80;;;1.43;;
14472;SDS011;7322;50.872;4.386;2022-12-28T09:31:40;1.03;;;0.70;;
14472;SDS011;7322;50.872;4.386;2022-12-28T09:34:14;1.60;;;1.00;;
14472;SDS011;7322;50.872;4.386;2022-12-28T09:36:44;3.30;;;1.10;;
14472;SDS011;7322;50.872;4.386;2022-12-28T09:39:23;3.30;;;1.10;;
14472;SDS011;7322;50.872;4.386;2022-12-28T09:41:52;2.43;;;1.10;;
14472;SDS011;7322;50.872;4.386;2022-12-28T09:47:23;4.17;;;1.60;;
14472;SDS011;7322;50.872;4.386;2022-12-28T09:50:05;1.93;;;1.13;;
14472;SDS011;7322;50.872;4.386;2022-12-28T09:52:56;3.87;;;1.03;;
14472;SDS011;7322;50.872;4.386;2022-12-28T09:55:52;3.10;;;1.00;;
14472;SDS011;7322;50.872;4.386;2022-12-28T09:58:33;2.13;;;1.00;;
14472;SDS011;7322;50.872;4.386;2022-12-28T10:03:42;2.43;;;1.20;;
14472;SDS011;7322;50.872;4.386;2022-12-28T10:06:14;5.03;;;1.53;;
14472;SDS011;7322;50.872;4.386;2022-12-28T10:08:43;7.33;;;1.43;;
14472;SDS011;7322;50.872;4.386;2022-12-28T10:11:14;3.27;;;1.30;;
14472;SDS011;7322;50.872;4.386;2022-12-28T10:13:42;4.00;;;1.50;;
14472;SDS011;7322;50.872;4.386;2022-12-28T10:16:14;2.37;;;1.20;;
14472;SDS011;7322;50.872;4.386;2022-12-28T10:18:45;2.43;;;1.17;;
14472;SDS011;7322;50.872;4.386;2022-12-28T10:21:15;2.23;;;1.10;;
14472;SDS011;7322;50.872;4.386;2022-12-28T10:23:44;4.00;;;1.50;;
14472;SDS011;7322;50.872;4.386;2022-12-28T10:26:14;2.93;;;1.23;;
14472;SDS011;7322;50.872;4.386;2022-12-28T10:28:47;3.83;;;1.53;;
14472;SDS011;7322;50.872;4.386;2022-12-28T10:31:28;2.17;;;1.20;;
14472;SDS011;7322;50.872;4.386;2022-12-28T10:33:57;3.37;;;1.43;;
14472;SDS011;7322;50.872;4.386;2022-12-28T10:36:32;3.57;;;1.53;;
14472;SDS011;7322;50.872;4.386;2022-12-28T10:39:01;2.33;;;1.30;;
14472;SDS011;7322;50.872;4.386;2022-12-28T10:41:33;3.73;;;1.50;;
14472;SDS011;7322;50.872;4.386;2022-12-28T10:44:10;3.50;;;1.60;;
14472;SDS011;7322;50.872;4.386;2022-12-28T10:46:50;2.03;;;1.00;;
14472;SDS011;7322;50.872;4.386;2022-12-28T10:49:20;3.57;;;1.40;;
14472;SDS011;7322;50.872;4.386;2022-12-28T10:52:06;2.57;;;1.20;;
14472;SDS011;7322;50.872;4.386;2022-12-28T10:54:44;3.13;;;1.17;;
14472;SDS011;7322;50.872;4.386;2022-12-28T10:57:15;2.47;;;1.30;;
14472;SDS011;7322;50.872;4.386;2022-12-28T10:59:44;3.30;;;1.40;;
14472;SDS011;7322;50.872;4.386;2022-12-28T11:02:24;2.37;;;1.00;;
14472;SDS011;7322;50.872;4.386;2022-12-28T11:04:55;2.17;;;1.23;;
14472;SDS011;7322;50.872;4.386;2022-12-28T11:07:33;2.10;;;1.10;;
14472;SDS011;7322;50.872;4.386;2022-12-28T11:10:15;2.67;;;1.53;;
14472;SDS011;7322;50.872;4.386;2022-12-28T11:12:51;3.97;;;1.63;;
14472;SDS011;7322;50.872;4.386;2022-12-28T11:15:20;2.50;;;1.20;;
14472;SDS011;7322;50.872;4.386;2022-12-28T11:17:52;2.03;;;1.23;;
14472;SDS011;7322;50.872;4.386;2022-12-28T11:20:25;1.73;;;1.10;;
14472;SDS011;7322;50.872;4.386;2022-12-28T11:22:59;3.33;;;1.30;;
14472;SDS011;7322;50.872;4.386;2022-12-28T11:25:30;2.93;;;1.20;;
14472;SDS011;7322;50.872;4.386;2022-12-28T11:27:59;2.20;;;0.90;;
14472;SDS011;7322;50.872;4.386;2022-12-28T11:30:28;1.30;;;1.00;;
14472;SDS011;7322;50.872;4.386;2022-12-28T11:32:57;1.57;;;1.10;;
14472;SDS011;7322;50.872;4.386;2022-12-28T11:35:28;2.00;;;1.20;;
14472;SDS011;7322;50.872;4.386;2022-12-28T11:38:00;4.00;;;1.30;;
14472;SDS011;7322;50.872;4.386;2022-12-28T11:40:47;2.53;;;1.20;;
14472;SDS011;7322;50.872;4.386;2022-12-28T12:01:02;1.20;;;1.10;;
14472;SDS011;7322;50.872;4.386;2022-12-28T12:16:25;1.80;;;1.20;;
14472;SDS011;7322;50.872;4.386;2022-12-28T12:19:01;1.40;;;1.20;;
14472;SDS011;7322;50.872;4.386;2022-12-28T12:21:35;1.93;;;1.30;;
14472;SDS011;7322;50.872;4.386;2022-12-28T12:24:16;2.43;;;1.20;;
14472;SDS011;7322;50.872;4.386;2022-12-28T12:27:11;1.90;;;1.30;;
14472;SDS011;7322;50.872;4.386;2022-12-28T12:29:42;2.03;;;1.40;;
14472;SDS011;7322;50.872;4.386;2022-12-28T12:35:02;2.73;;;1.23;;
14472;SDS011;7322;50.872;4.386;2022-12-28T12:37:45;1.63;;;1.10;;
14472;SDS011;7322;50.872;4.386;2022-12-28T12:40:38;2.13;;;1.07;;
14472;SDS011;7322;50.872;4.386;2022-12-28T12:46:28;3.17;;;1.37;;
14472;SDS011;7322;50.872;4.386;2022-12-28T12:49:21;1.83;;;1.20;;
14472;SDS011;7322;50.872;4.386;2022-12-28T13:00:47;1.63;;;0.90;;
14472;SDS011;7322;50.872;4.386;2022-12-28T13:06:27;2.03;;;1.00;;
14472;SDS011;7322;50.872;4.386;2022-12-28T13:09:02;2.07;;;1.03;;
14472;SDS011;7322;50.872;4.386;2022-12-28T13:11:46;1.50;;;1.10;;
14472;SDS011;7322;50.872;4.386;2022-12-28T13:17:18;2.90;;;1.20;;
14472;SDS011;7322;50.872;4.386;2022-12-28T13:25:43;2.13;;;1.00;;
14472;SDS011;7322;50.872;4.386;2022-12-28T13:28:19;2.87;;;1.30;;
14472;SDS011;7322;50.872;4.386;2022-12-28T13:36:32;1.40;;;0.90;;
14472;SDS011;7322;50.872;4.386;2022-12-28T13:39:17;2.50;;;1.30;;
14472;SDS011;7322;50.872;4.386;2022-12-28T13:41:51;2.00;;;1.10;;
14472;SDS011;7322;50.872;4.386;2022-12-28T13:47:10;2.50;;;1.10;;
14472;SDS011;7322;50.872;4.386;2022-12-28T13:49:47;2.70;;;1.50;;
14472;SDS011;7322;50.872;4.386;2022-12-28T13:52:33;2.47;;;1.20;;
14472;SDS011;7322;50.872;4.386;2022-12-28T13:57:44;1.60;;;1.10;;
14472;SDS011;7322;50.872;4.386;2022-12-28T14:00:26;3.13;;;1.13;;
14472;SDS011;7322;50.872;4.386;2022-12-28T14:02:57;1.97;;;1.30;;
14472;SDS011;7322;50.872;4.386;2022-12-28T14:05:28;1.63;;;1.13;;
14472;SDS011;7322;50.872;4.386;2022-12-28T14:10:44;4.60;;;1.50;;
14472;SDS011;7322;50.872;4.386;2022-12-28T14:13:12;2.23;;;1.20;;
14472;SDS011;7322;50.872;4.386;2022-12-28T14:15:41;2.37;;;1.03;;
14472;SDS011;7322;50.872;4.386;2022-12-28T14:18:12;1.40;;;1.17;;
14472;SDS011;7322;50.872;4.386;2022-12-28T14:20:46;1.33;;;1.20;;
14472;SDS011;7322;50.872;4.386;2022-12-28T14:23:21;2.33;;;1.40;;
14472;SDS011;7322;50.872;4.386;2022-12-28T14:25:50;2.43;;;1.27;;
14472;SDS011;7322;50.872;4.386;2022-12-28T14:28:20;2.50;;;1.60;;
14472;SDS011;7322;50.872;4.386;2022-12-28T14:30:51;4.47;;;2.00;;
14472;SDS011;7322;50.872;4.386;2022-12-28T14:33:20;3.30;;;2.07;;
14472;SDS011;7322;50.872;4.386;2022-12-28T14:35:53;2.73;;;2.10;;
14472;SDS011;7322;50.872;4.386;2022-12-28T14:38:22;6.00;;;2.83;;
14472;SDS011;7322;50.872;4.386;2022-12-28T14:40:54;5.93;;;2.90;;
14472;SDS011;7322;50.872;4.386;2022-12-28T14:43:22;5.67;;;3.57;;
14472;SDS011;7322;50.872;4.386;2022-12-28T14:45:51;6.60;;;4.40;;
14472;SDS011;7322;50.872;4.386;2022-12-28T14:48:20;6.47;;;4.67;;
14472;SDS011;7322;50.872;4.386;2022-12-28T14:50:58;7.97;;;6.13;;
14472;SDS011;7322;50.872;4.386;2022-12-28T14:53:27;11.53;;;6.90;;
14472;SDS011;7322;50.872;4.386;2022-12-28T14:55:55;10.43;;;7.00;;
14472;SDS011;7322;50.872;4.386;2022-12-28T14:58:36;10.60;;;7.40;;
14472;SDS011;7322;50.872;4.386;2022-12-28T15:01:09;14.13;;;9.10;;
14472;SDS011;7322;50.872;4.386;2022-12-28T15:03:50;12.50;;;9.93;;
14472;SDS011;7322;50.872;4.386;2022-12-28T15:06:20;14.47;;;10.20;;
14472;SDS011;7322;50.872;4.386;2022-12-28T15:08:50;16.53;;;11.83;;
14472;SDS011;7322;50.872;4.386;2022-12-28T15:11:18;18.63;;;12.80;;
14472;SDS011;7322;50.872;4.386;2022-12-28T15:13:46;19.83;;;13.57;;
14472;SDS011;7322;50.872;4.386;2022-12-28T15:16:14;20.90;;;14.93;;
14472;SDS011;7322;50.872;4.386;2022-12-28T15:18:43;20.33;;;14.13;;
14472;SDS011;7322;50.872;4.386;2022-12-28T15:21:11;19.40;;;14.80;;
14472;SDS011;7322;50.872;4.386;2022-12-28T15:23:41;20.83;;;15.80;;
14472;SDS011;7322;50.872;4.386;2022-12-28T15:26:13;21.30;;;16.17;;
14472;SDS011;7322;50.872;4.386;2022-12-28T15:28:43;20.97;;;15.60;;
14472;SDS011;7322;50.872;4.386;2022-12-28T15:31:11;24.73;;;17.63;;
14472;SDS011;7322;50.872;4.386;2022-12-28T15:33:48;24.93;;;17.67;;
14472;SDS011;7322;50.872;4.386;2022-12-28T15:36:20;24.50;;;17.60;;
14472;SDS011;7322;50.872;4.386;2022-12-28T15:38:53;23.03;;;18.20;;
14472;SDS011;7322;50.872;4.386;2022-12-28T15:41:25;23.07;;;16.93;;
14472;SDS011;7322;50.872;4.386;2022-12-28T15:44:14;27.27;;;19.80;;
14472;SDS011;7322;50.872;4.386;2022-12-28T15:46:44;23.23;;;17.93;;
14472;SDS011;7322;50.872;4.386;2022-12-28T15:49:15;28.40;;;19.93;;
14472;SDS011;7322;50.872;4.386;2022-12-28T15:51:43;26.40;;;18.50;;
14472;SDS011;7322;50.872;4.386;2022-12-28T15:54:13;29.87;;;20.10;;
14472;SDS011;7322;50.872;4.386;2022-12-28T15:56:41;23.43;;;19.50;;
14472;SDS011;7322;50.872;4.386;2022-12-28T15:59:14;25.23;;;19.50;;
14472;SDS011;7322;50.872;4.386;2022-12-28T16:01:43;29.07;;;21.23;;
14472;SDS011;7322;50.872;4.386;2022-12-28T16:04:12;25.90;;;19.53;;
14472;SDS011;7322;50.872;4.386;2022-12-28T16:06:39;27.13;;;20.83;;
14472;SDS011;7322;50.872;4.386;2022-12-28T16:09:08;25.77;;;18.80;;
14472;SDS011;7322;50.872;4.386;2022-12-28T16:11:37;24.80;;;18.97;;
14472;SDS011;7322;50.872;4.386;2022-12-28T16:14:06;27.67;;;21.40;;
14472;SDS011;7322;50.872;4.386;2022-12-28T16:16:38;28.17;;;20.97;;
14472;SDS011;7322;50.872;4.386;2022-12-28T16:19:05;26.70;;;19.90;;
14472;SDS011;7322;50.872;4.386;2022-12-28T16:21:34;30.73;;;22.83;;
14472;SDS011;7322;50.872;4.386;2022-12-28T16:24:01;30.37;;;24.03;;
14472;SDS011;7322;50.872;4.386;2022-12-28T16:26:30;30.03;;;22.87;;
14472;SDS011;7322;50.872;4.386;2022-12-28T16:29:02;33.13;;;24.33;;
14472;SDS011;7322;50.872;4.386;2022-12-28T16:31:29;31.30;;;23.80;;
14472;SDS011;7322;50.872;4.386;2022-12-28T16:34:01;30.37;;;24.97;;
14472;SDS011;7322;50.872;4.386;2022-12-28T16:36:30;31.87;;;25.67;;
14472;SDS011;7322;50.872;4.386;2022-12-28T16:38:58;34.70;;;26.87;;
14472;SDS011;7322;50.872;4.386;2022-12-28T16:41:27;39.90;;;29.70;;
14472;SDS011;7322;50.872;4.386;2022-12-28T16:43:59;35.17;;;27.70;;
14472;SDS011;7322;50.872;4.386;2022-12-28T16:46:32;40.67;;;30.33;;
14472;SDS011;7322;50.872;4.386;2022-12-28T16:49:00;37.47;;;29.17;;
14472;SDS011;7322;50.872;4.386;2022-12-28T16:53:58;39.20;;;29.47;;
14472;SDS011;7322;50.872;4.386;2022-12-28T16:56:27;37.87;;;29.10;;
14472;SDS011;7322;50.872;4.386;2022-12-28T16:58:55;39.40;;;31.27;;
14472;SDS011;7322;50.872;4.386;2022-12-28T17:01:25;38.30;;;31.07;;
14472;SDS011;7322;50.872;4.386;2022-12-28T17:03:52;39.33;;;29.60;;
14472;SDS011;7322;50.872;4.386;2022-12-28T17:06:20;40.17;;;31.20;;
14472;SDS011;7322;50.872;4.386;2022-12-28T17:08:47;40.37;;;32.50;;
14472;SDS011;7322;50.872;4.386;2022-12-28T17:11:14;41.80;;;32.73;;